Time;durP1;ratioP1;P1;durP2;ratioP2;P2;SDS_P1;SDS_P2;PMS_P1;PMS_P2;Temp;Humidity;BMP_temperature;BMP_pressure;BME280_temperature;BME280_humidity;BME280_pressure;Samples;Min_cycle;Max_cycle;Signal;HPM_P1;HPM_P2
2022/04/15 00:01:20;;;;;;;17.08;8.55;;;;;;;;;;5014355;28;20026;-39
2022/04/15 00:03:46;;;;;;;11.82;6.78;;;;;;;;;;5014522;28;20360;-39
2022/04/15 00:06:12;;;;;;;18.80;6.13;;;;;;;;;;5014232;28;20084;-38
2022/04/15 00:08:38;;;;;;;20.13;8.43;;;;;;;;;;5014486;28;20036;-37
2022/04/15 00:11:04;;;;;;;18.92;8.73;;;;;;;;;;5014171;28;20120;-38
2022/04/15 00:13:32;;;;;;;17.88;9.10;;;;;;;;;;5014134;28;20037;-38
2022/04/15 00:16:02;;;;;;;17.92;8.15;;;;;;;;;;5014399;28;20092;-38
2022/04/15 00:18:28;;;;;;;17.23;8.15;;;;;;;;;;5013949;28;20493;-38
2022/04/15 00:20:54;;;;;;;20.40;9.07;;;;;;;;;;5014447;28;20034;-38
2022/04/15 00:23:22;;;;;;;19.27;8.73;;;;;;;;;;5014261;28;20379;-39
2022/04/15 00:25:51;;;;;;;15.50;8.27;;;;;;;;;;5013775;28;20041;-38
2022/04/15 00:28:21;;;;;;;19.75;8.60;;;;;;;;;;5013945;28;20533;-39
2022/04/15 00:30:47;;;;;;;22.98;9.90;;;;;;;;;;5013367;28;20038;-40
2022/04/15 00:33:13;;;;;;;16.23;7.72;;;;;;;;;;5014095;28;20028;-40
2022/04/15 00:35:38;;;;;;;18.67;8.38;;;;;;;;;;5013662;28;20113;-38
2022/04/15 00:38:04;;;;;;;15.60;8.50;;;;;;;;;;5014043;28;20478;-39
2022/04/15 00:40:29;;;;;;;13.70;7.70;;;;;;;;;;5013900;28;20379;-38
2022/04/15 00:42:55;;;;;;;19.83;7.55;;;;;;;;;;5013956;28;20092;-38
2022/04/15 00:45:20;;;;;;;13.00;7.30;;;;;;;;;;5013329;28;20034;-39
2022/04/15 00:47:52;;;;;;;16.52;6.97;;;;;;;;;;5013638;28;20030;-40
2022/04/15 00:50:22;;;;;;;14.77;6.47;;;;;;;;;;5012829;28;20529;-38
2022/04/15 00:52:50;;;;;;;13.70;7.65;;;;;;;;;;5013710;28;20088;-40
2022/04/15 00:55:17;;;;;;;16.23;7.93;;;;;;;;;;5013658;28;20033;-40
2022/04/15 00:57:49;;;;;;;14.25;7.05;;;;;;;;;;5013225;28;20050;-38
2022/04/15 01:00:15;;;;;;;12.43;7.43;;;;;;;;;;5013246;28;20117;-40
2022/04/15 01:02:43;;;;;;;19.58;7.47;;;;;;;;;;5013357;28;20367;-38
2022/04/15 01:05:09;;;;;;;15.52;6.90;;;;;;;;;;5013145;28;20378;-37
2022/04/15 01:07:43;;;;;;;25.08;8.25;;;;;;;;;;5013264;28;20025;-38
2022/04/15 01:10:13;;;;;;;14.60;7.35;;;;;;;;;;5013492;28;20033;-38
2022/04/15 01:12:51;;;;;;;14.50;8.05;;;;;;;;;;5013432;28;20041;-38
2022/04/15 01:15:19;;;;;;;13.05;6.30;;;;;;;;;;5013124;28;20026;-37
2022/04/15 01:17:44;;;;;;;16.48;7.32;;;;;;;;;;5013240;28;20493;-38
2022/04/15 01:20:12;;;;;;;16.73;7.05;;;;;;;;;;5013046;28;20033;-37
2022/04/15 01:22:46;;;;;;;14.05;6.28;;;;;;;;;;5013263;28;20053;-38
2022/04/15 01:25:16;;;;;;;12.45;6.53;;;;;;;;;;5013232;28;20025;-38
2022/04/15 01:27:43;;;;;;;12.23;6.40;;;;;;;;;;5013157;28;20026;-37
2022/04/15 01:30:17;;;;;;;12.13;5.80;;;;;;;;;;5012795;28;20037;-38
2022/04/15 01:32:44;;;;;;;7.60;4.32;;;;;;;;;;5012785;28;20033;-38
2022/04/15 01:35:11;;;;;;;5.35;3.28;;;;;;;;;;5013052;28;20454;-38
2022/04/15 01:37:38;;;;;;;9.52;4.05;;;;;;;;;;5012168;28;20076;-38
2022/04/15 01:40:05;;;;;;;6.82;3.58;;;;;;;;;;5012973;28;20038;-38
2022/04/15 01:42:31;;;;;;;8.13;4.13;;;;;;;;;;5012678;28;20034;-37
2022/04/15 01:44:57;;;;;;;7.93;4.25;;;;;;;;;;5012535;28;20033;-37
2022/04/15 01:47:22;;;;;;;10.18;3.60;;;;;;;;;;5012959;28;20022;-37
2022/04/15 01:49:48;;;;;;;6.65;4.90;;;;;;;;;;5012841;28;20030;-37
2022/04/15 01:52:13;;;;;;;10.52;5.32;;;;;;;;;;5012859;28;20549;-38
2022/04/15 01:54:39;;;;;;;10.00;5.50;;;;;;;;;;5012796;28;20421;-37
2022/04/15 01:57:04;;;;;;;13.60;6.45;;;;;;;;;;5012335;28;20124;-37
2022/04/15 01:59:30;;;;;;;11.20;5.65;;;;;;;;;;5012485;28;20030;-38
2022/04/15 02:01:56;;;;;;;11.95;6.05;;;;;;;;;;5012524;28;20034;-38
2022/04/15 02:04:22;;;;;;;17.23;6.85;;;;;;;;;;5012777;28;20105;-38
2022/04/15 02:06:48;;;;;;;10.98;6.45;;;;;;;;;;5012369;28;20037;-37
2022/04/15 02:09:13;;;;;;;9.95;5.95;;;;;;;;;;5012711;28;20026;-38
2022/04/15 02:11:39;;;;;;;12.02;6.15;;;;;;;;;;5012439;28;20382;-39
2022/04/15 02:14:04;;;;;;;12.10;5.80;;;;;;;;;;5012427;28;20152;-38
2022/04/15 02:16:30;;;;;;;12.60;6.28;;;;;;;;;;5012441;28;20033;-39
2022/04/15 02:18:55;;;;;;;10.05;5.72;;;;;;;;;;5012559;28;20030;-38
2022/04/15 02:21:21;;;;;;;13.32;7.43;;;;;;;;;;5012560;28;20033;-37
2022/04/15 02:23:46;;;;;;;13.25;5.60;;;;;;;;;;5012562;28;20022;-37
2022/04/15 02:26:12;;;;;;;7.00;4.53;;;;;;;;;;5012477;28;20084;-38
2022/04/15 02:28:38;;;;;;;7.10;4.35;;;;;;;;;;5012191;28;20565;-39
2022/04/15 02:31:03;;;;;;;8.55;5.47;;;;;;;;;;5012557;28;20053;-38
2022/04/15 02:33:29;;;;;;;10.25;3.90;;;;;;;;;;5012456;28;20056;-37
2022/04/15 02:35:55;;;;;;;10.43;6.28;;;;;;;;;;5012468;28;20045;-38
2022/04/15 02:38:20;;;;;;;15.00;7.55;;;;;;;;;;5012178;28;20533;-39
2022/04/15 02:40:46;;;;;;;12.98;6.25;;;;;;;;;;5012177;28;20030;-38
2022/04/15 02:43:12;;;;;;;15.23;6.50;;;;;;;;;;5012098;28;20050;-38
2022/04/15 02:45:37;;;;;;;12.75;6.35;;;;;;;;;;5012252;28;20029;-38
2022/04/15 02:48:03;;;;;;;12.82;6.30;;;;;;;;;;5013905;28;20072;-38
2022/04/15 02:50:29;;;;;;;14.07;6.47;;;;;;;;;;5016037;28;20088;-38
2022/04/15 02:52:55;;;;;;;13.52;7.20;;;;;;;;;;5015748;28;20022;-38
2022/04/15 02:55:20;;;;;;;14.60;6.90;;;;;;;;;;5015699;28;20462;-38
2022/04/15 02:57:46;;;;;;;14.48;7.18;;;;;;;;;;5015358;28;20046;-38
2022/04/15 03:00:14;;;;;;;16.10;6.97;;;;;;;;;;5015557;28;20034;-38
2022/04/15 03:02:39;;;;;;;17.30;7.15;;;;;;;;;;5015536;28;20022;-38
2022/04/15 03:05:06;;;;;;;14.98;7.30;;;;;;;;;;5015402;28;20105;-38
2022/04/15 03:07:32;;;;;;;15.93;7.18;;;;;;;;;;5015700;28;20406;-38
2022/04/15 03:09:58;;;;;;;14.60;7.70;;;;;;;;;;5015409;28;20029;-39
2022/04/15 03:12:23;;;;;;;11.32;6.10;;;;;;;;;;5015612;28;20022;-39
2022/04/15 03:14:53;;;;;;;12.90;6.60;;;;;;;;;;5015052;28;20135;-38
2022/04/15 03:17:19;;;;;;;12.15;7.28;;;;;;;;;;5015597;28;20025;-38
2022/04/15 03:19:44;;;;;;;20.67;8.13;;;;;;;;;;5015198;28;20036;-38
2022/04/15 03:22:10;;;;;;;13.10;6.32;;;;;;;;;;5015231;28;20056;-39
2022/04/15 03:24:36;;;;;;;19.33;6.38;;;;;;;;;;5015399;28;20033;-39
2022/04/15 03:27:02;;;;;;;9.27;6.80;;;;;;;;;;5015258;28;20033;-38
2022/04/15 03:29:28;;;;;;;16.08;6.70;;;;;;;;;;5015355;28;20544;-38
2022/04/15 03:31:53;;;;;;;17.73;6.05;;;;;;;;;;5015059;28;20022;-38
2022/04/15 03:34:19;;;;;;;19.23;7.53;;;;;;;;;;5015184;28;20054;-38
2022/04/15 03:36:45;;;;;;;15.13;7.65;;;;;;;;;;5015006;28;20028;-39
2022/04/15 03:39:11;;;;;;;17.20;7.40;;;;;;;;;;5015081;28;20387;-37
2022/04/15 03:41:37;;;;;;;17.20;7.65;;;;;;;;;;5014803;28;20030;-38
2022/04/15 03:44:04;;;;;;;13.15;7.00;;;;;;;;;;5015078;28;20026;-38
2022/04/15 03:46:29;;;;;;;19.10;7.05;;;;;;;;;;5014652;28;20513;-38
2022/04/15 03:48:55;;;;;;;9.95;6.55;;;;;;;;;;5014663;28;20061;-38
2022/04/15 03:51:20;;;;;;;17.45;7.18;;;;;;;;;;5014681;28;20022;-38
2022/04/15 03:53:46;;;;;;;12.73;6.75;;;;;;;;;;5014824;28;20033;-39
2022/04/15 03:56:11;;;;;;;12.63;7.28;;;;;;;;;;5014570;28;20042;-37
2022/04/15 03:58:37;;;;;;;12.15;6.60;;;;;;;;;;5014398;28;20048;-38
2022/04/15 04:01:02;;;;;;;13.07;6.72;;;;;;;;;;5014209;28;20030;-37
2022/04/15 04:03:28;;;;;;;10.30;5.95;;;;;;;;;;5014754;28;20366;-38
2022/04/15 04:05:53;;;;;;;13.27;6.32;;;;;;;;;;5014584;28;20117;-39
2022/04/15 04:08:19;;;;;;;20.85;8.13;;;;;;;;;;5014605;28;20372;-38
2022/04/15 04:10:44;;;;;;;13.68;7.22;;;;;;;;;;5014321;28;20453;-38
2022/04/15 04:13:10;;;;;;;17.02;7.05;;;;;;;;;;5014514;28;20024;-41
2022/04/15 04:15:35;;;;;;;15.48;6.80;;;;;;;;;;5014197;28;20033;-38
2022/04/15 04:18:01;;;;;;;15.90;6.93;;;;;;;;;;5014455;28;20025;-38
2022/04/15 04:20:27;;;;;;;12.60;6.90;;;;;;;;;;5014346;28;20022;-38
2022/04/15 04:22:53;;;;;;;15.30;7.00;;;;;;;;;;5014361;28;20025;-40
2022/04/15 04:25:19;;;;;;;12.07;6.13;;;;;;;;;;5013875;28;20382;-40
2022/04/15 04:27:45;;;;;;;14.07;7.60;;;;;;;;;;5014131;28;20026;-40
2022/04/15 04:30:15;;;;;;;17.63;7.57;;;;;;;;;;5014083;28;20425;-39
2022/04/15 04:32:42;;;;;;;12.10;6.43;;;;;;;;;;5013786;28;20029;-39
2022/04/15 04:35:08;;;;;;;14.73;6.65;;;;;;;;;;5013859;28;20032;-39
2022/04/15 04:37:34;;;;;;;10.10;6.55;;;;;;;;;;5014096;28;20017;-39
2022/04/15 04:40:00;;;;;;;11.07;6.45;;;;;;;;;;5013958;28;20044;-40
2022/04/15 04:42:26;;;;;;;16.70;6.38;;;;;;;;;;5014063;28;20113;-39
2022/04/15 04:44:52;;;;;;;14.10;6.50;;;;;;;;;;5013543;28;20021;-39
2022/04/15 04:47:19;;;;;;;15.10;7.15;;;;;;;;;;5013559;28;20057;-40
2022/04/15 04:49:45;;;;;;;14.98;7.38;;;;;;;;;;5013873;28;20053;-39
2022/04/15 04:52:11;;;;;;;13.57;6.72;;;;;;;;;;5013772;28;20053;-39
2022/04/15 04:54:36;;;;;;;15.00;7.65;;;;;;;;;;5013516;28;20022;-39
2022/04/15 04:57:03;;;;;;;13.05;6.97;;;;;;;;;;5013140;28;20033;-38
2022/04/15 04:59:29;;;;;;;17.00;7.03;;;;;;;;;;5013368;28;20022;-38
2022/04/15 05:01:55;;;;;;;16.17;7.10;;;;;;;;;;5013271;28;20030;-39
2022/04/15 05:04:21;;;;;;;11.38;7.32;;;;;;;;;;5013265;28;20101;-40
2022/04/15 05:06:46;;;;;;;13.75;7.53;;;;;;;;;;5013071;28;20041;-39
2022/04/15 05:09:12;;;;;;;11.27;7.28;;;;;;;;;;5013333;28;20022;-39
2022/04/15 05:11:37;;;;;;;14.23;7.25;;;;;;;;;;5012571;28;20656;-40
2022/04/15 05:14:03;;;;;;;15.52;7.72;;;;;;;;;;5013319;28;20109;-39
2022/04/15 05:16:28;;;;;;;10.80;7.15;;;;;;;;;;5013343;28;20157;-40
2022/04/15 05:18:54;;;;;;;14.95;8.05;;;;;;;;;;5013545;28;20032;-41
2022/04/15 05:21:19;;;;;;;11.77;7.20;;;;;;;;;;5013044;28;20506;-39
2022/04/15 05:23:48;;;;;;;13.43;8.23;;;;;;;;;;5013065;28;20351;-38
2022/04/15 05:26:14;;;;;;;18.70;7.80;;;;;;;;;;5013173;28;20025;-39
2022/04/15 05:28:41;;;;;;;12.90;7.28;;;;;;;;;;5012972;28;20034;-40
2022/04/15 05:31:06;;;;;;;14.20;7.75;;;;;;;;;;5012809;28;20029;-40
2022/04/15 05:33:32;;;;;;;14.23;7.20;;;;;;;;;;5013128;28;20076;-38
2022/04/15 05:35:57;;;;;;;20.02;8.18;;;;;;;;;;5012834;28;20458;-40
2022/04/15 05:38:23;;;;;;;16.90;8.60;;;;;;;;;;5012812;28;20064;-40
2022/04/15 05:40:48;;;;;;;10.65;7.45;;;;;;;;;;5012624;28;20026;-41
2022/04/15 05:43:15;;;;;;;16.48;8.38;;;;;;;;;;5012992;28;20033;-40
2022/04/15 05:45:40;;;;;;;14.23;8.65;;;;;;;;;;5012737;28;20034;-40
2022/04/15 05:48:06;;;;;;;13.38;8.68;;;;;;;;;;4995067;28;20026;-40
2022/04/15 05:50:31;;;;;;;26.60;9.65;;;;;;;;;;5012654;28;20022;-38
2022/04/15 05:52:57;;;;;;;14.02;8.20;;;;;;;;;;5012810;28;20061;-40
2022/04/15 05:55:22;;;;;;;16.80;9.57;;;;;;;;;;5012740;28;20030;-39
2022/04/15 05:57:48;;;;;;;18.08;8.93;;;;;;;;;;5012082;28;20420;-38
2022/04/15 06:00:14;;;;;;;18.15;9.35;;;;;;;;;;5012399;28;20034;-39
2022/04/15 06:02:39;;;;;;;13.10;8.90;;;;;;;;;;5012561;28;20498;-40
2022/04/15 06:05:07;;;;;;;21.10;9.82;;;;;;;;;;5012372;28;20471;-39
2022/04/15 06:07:32;;;;;;;16.17;9.35;;;;;;;;;;5012461;28;20402;-41
2022/04/15 06:09:58;;;;;;;16.70;9.50;;;;;;;;;;5012457;28;20017;-40
2022/04/15 06:12:54;;;;;;;13.70;8.85;;;;;;;;;;5012679;28;20041;-39
2022/04/15 06:15:18;;;;;;;17.67;8.95;;;;;;;;;;5012212;28;20540;-41
2022/04/15 06:17:44;;;;;;;17.63;9.38;;;;;;;;;;5012389;28;20057;-38
2022/04/15 06:20:10;;;;;;;15.52;8.75;;;;;;;;;;5012365;28;20049;-41
2022/04/15 06:22:36;;;;;;;16.17;9.27;;;;;;;;;;5013410;28;20030;-41
2022/04/15 06:25:02;;;;;;;13.88;8.75;;;;;;;;;;5016169;28;20037;-39
2022/04/15 06:27:27;;;;;;;17.63;9.27;;;;;;;;;;5016255;28;20030;-41
2022/04/15 06:29:53;;;;;;;17.85;9.35;;;;;;;;;;5016030;28;20034;-41
2022/04/15 06:32:18;;;;;;;19.17;9.10;;;;;;;;;;5016159;28;20030;-39
2022/04/15 06:34:44;;;;;;;17.15;9.63;;;;;;;;;;5016093;28;20030;-38
2022/04/15 06:37:09;;;;;;;16.25;8.88;;;;;;;;;;5016223;28;20029;-39
2022/04/15 06:39:34;;;;;;;16.67;9.80;;;;;;;;;;5016280;28;20061;-43
2022/04/15 06:42:00;;;;;;;16.67;10.20;;;;;;;;;;5015977;28;20370;-38
2022/04/15 06:44:25;;;;;;;16.42;9.70;;;;;;;;;;5015870;28;20038;-37
2022/04/15 06:46:51;;;;;;;16.63;10.07;;;;;;;;;;5016087;28;20103;-40
2022/04/15 06:49:16;;;;;;;17.08;9.68;;;;;;;;;;5015849;28;20415;-40
2022/04/15 06:51:42;;;;;;;18.58;10.18;;;;;;;;;;5016066;28;20593;-39
2022/04/15 06:54:07;;;;;;;16.98;10.77;;;;;;;;;;5015764;28;20029;-40
2022/04/15 06:56:33;;;;;;;16.40;10.23;;;;;;;;;;5015986;28;20030;-38
2022/04/15 06:58:58;;;;;;;17.77;10.15;;;;;;;;;;5015490;28;20053;-39
2022/04/15 07:01:24;;;;;;;15.63;9.60;;;;;;;;;;5015912;28;20026;-41
2022/04/15 07:03:50;;;;;;;17.58;9.80;;;;;;;;;;5015799;28;20030;-40
2022/04/15 07:06:15;;;;;;;15.18;10.13;;;;;;;;;;5015758;28;20092;-38
2022/04/15 07:08:41;;;;;;;15.40;9.63;;;;;;;;;;5015488;28;20517;-40
2022/04/15 07:11:06;;;;;;;20.58;10.05;;;;;;;;;;5015628;28;20022;-40
2022/04/15 07:13:32;;;;;;;16.23;10.35;;;;;;;;;;5015437;28;20036;-42
2022/04/15 07:15:57;;;;;;;14.77;8.95;;;;;;;;;;5015362;28;20037;-40
2022/04/15 07:18:22;;;;;;;18.00;8.77;;;;;;;;;;5015238;28;20030;-40
2022/04/15 07:20:48;;;;;;;11.70;8.05;;;;;;;;;;5015227;28;20022;-41
2022/04/15 07:23:13;;;;;;;13.82;8.57;;;;;;;;;;5015050;28;20125;-42
2022/04/15 07:25:39;;;;;;;12.52;8.18;;;;;;;;;;5015200;28;20109;-39
2022/04/15 07:28:05;;;;;;;12.75;7.65;;;;;;;;;;5015238;28;20360;-40
2022/04/15 07:30:31;;;;;;;12.27;7.68;;;;;;;;;;5015043;28;20494;-42
2022/04/15 07:32:58;;;;;;;12.13;7.32;;;;;;;;;;5014908;28;20547;-38
2022/04/15 07:35:23;;;;;;;12.15;7.93;;;;;;;;;;5014187;28;20033;-42
2022/04/15 07:37:49;;;;;;;17.77;7.88;;;;;;;;;;5014927;28;20508;-40
2022/04/15 07:40:14;;;;;;;12.55;7.53;;;;;;;;;;5014707;28;20022;-41
2022/04/15 07:42:40;;;;;;;17.13;6.63;;;;;;;;;;5014869;28;20031;-39
2022/04/15 07:45:06;;;;;;;10.10;6.93;;;;;;;;;;5014981;28;20561;-40
2022/04/15 07:47:32;;;;;;;11.27;6.97;;;;;;;;;;5014758;28;20104;-39
2022/04/15 07:49:57;;;;;;;14.07;7.32;;;;;;;;;;5014585;28;20049;-40
2022/04/15 07:52:23;;;;;;;14.95;6.72;;;;;;;;;;5014863;28;20034;-38
2022/04/15 07:54:48;;;;;;;8.90;6.22;;;;;;;;;;5014666;28;20033;-40
2022/04/15 07:57:16;;;;;;;8.73;5.63;;;;;;;;;;5014399;28;20029;-38
2022/04/15 07:59:41;;;;;;;9.40;5.70;;;;;;;;;;4996964;28;20053;-40
2022/04/15 08:02:07;;;;;;;10.00;5.05;;;;;;;;;;5014349;28;20053;-38
2022/04/15 08:04:36;;;;;;;10.48;5.32;;;;;;;;;;5014368;28;20026;-38
2022/04/15 08:07:02;;;;;;;10.15;6.47;;;;;;;;;;5014193;28;20113;-40
2022/04/15 08:09:28;;;;;;;6.80;5.20;;;;;;;;;;5013410;28;20557;-39
2022/04/15 08:11:54;;;;;;;9.25;5.80;;;;;;;;;;5013777;28;20029;-39
2022/04/15 08:14:20;;;;;;;9.82;5.63;;;;;;;;;;5014523;28;20030;-39
2022/04/15 08:16:45;;;;;;;9.45;5.72;;;;;;;;;;4996585;28;20037;-39
2022/04/15 08:19:11;;;;;;;10.85;4.93;;;;;;;;;;4996725;28;20033;-40
2022/04/15 08:21:37;;;;;;;10.52;5.47;;;;;;;;;;5014063;28;20022;-46
2022/04/15 08:24:02;;;;;;;8.90;6.47;;;;;;;;;;5013995;28;20041;-40
2022/04/15 08:26:29;;;;;;;6.75;4.57;;;;;;;;;;5013663;28;20040;-41
2022/04/15 08:28:54;;;;;;;9.52;5.53;;;;;;;;;;5013362;28;20026;-40
2022/04/15 08:31:20;;;;;;;9.25;4.90;;;;;;;;;;5013629;28;20022;-39
2022/04/15 08:33:46;;;;;;;10.13;5.07;;;;;;;;;;5013461;28;20231;-39
2022/04/15 08:36:11;;;;;;;8.20;5.35;;;;;;;;;;5013671;28;20030;-41
2022/04/15 08:38:37;;;;;;;9.77;4.75;;;;;;;;;;5013966;28;20036;-40
2022/04/15 08:41:02;;;;;;;7.00;4.95;;;;;;;;;;5013652;28;20470;-40
2022/04/15 08:43:29;;;;;;;11.55;5.50;;;;;;;;;;5013645;28;20041;-40
2022/04/15 08:45:55;;;;;;;9.63;5.45;;;;;;;;;;5013674;28;20022;-40
2022/04/15 08:48:22;;;;;;;10.45;5.10;;;;;;;;;;5013499;28;20026;-40
2022/04/15 08:50:48;;;;;;;9.30;4.60;;;;;;;;;;5013749;28;20026;-40
2022/04/15 08:53:14;;;;;;;6.90;4.80;;;;;;;;;;5013761;28;20040;-41
2022/04/15 08:55:40;;;;;;;8.70;5.00;;;;;;;;;;5012929;28;20025;-40
2022/04/15 08:58:05;;;;;;;6.22;4.97;;;;;;;;;;5012889;28;20041;-42
2022/04/15 09:00:31;;;;;;;7.45;4.63;;;;;;;;;;5012978;28;20422;-42
2022/04/15 09:02:57;;;;;;;8.77;4.90;;;;;;;;;;5012742;28;20039;-41
2022/04/15 09:05:25;;;;;;;7.57;5.13;;;;;;;;;;4994897;28;20025;-41
2022/04/15 09:08:04;;;;;;;6.68;4.80;;;;;;;;;;5013058;28;20037;-39
2022/04/15 09:10:31;;;;;;;8.10;4.97;;;;;;;;;;5012888;28;20478;-42
2022/04/15 09:12:56;;;;;;;7.82;4.90;;;;;;;;;;5013158;28;20100;-40
2022/04/15 09:15:22;;;;;;;8.23;4.95;;;;;;;;;;5013315;28;20410;-39
2022/04/15 09:17:52;;;;;;;10.00;4.95;;;;;;;;;;5012139;28;20536;-38
2022/04/15 09:20:19;;;;;;;7.85;5.20;;;;;;;;;;5012507;28;20058;-39
2022/04/15 09:22:45;;;;;;;9.77;5.07;;;;;;;;;;5012423;28;20018;-40
2022/04/15 09:25:12;;;;;;;7.97;5.07;;;;;;;;;;5012824;28;20075;-40
2022/04/15 09:27:38;;;;;;;6.55;5.00;;;;;;;;;;5013008;28;20026;-41
2022/04/15 09:30:05;;;;;;;11.73;4.90;;;;;;;;;;5013217;28;20034;-42
2022/04/15 09:32:31;;;;;;;7.10;4.97;;;;;;;;;;5013149;28;20037;-40
2022/04/15 09:35:04;;;;;;;6.68;4.53;;;;;;;;;;5012810;28;20030;-41
2022/04/15 09:37:42;;;;;;;6.22;4.50;;;;;;;;;;5012832;28;20112;-41
2022/04/15 09:40:20;;;;;;;7.20;4.70;;;;;;;;;;5012816;28;20410;-41
2022/04/15 09:42:53;;;;;;;7.78;5.00;;;;;;;;;;5012160;28;20049;-44
2022/04/15 09:45:30;;;;;;;6.20;4.65;;;;;;;;;;5012491;28;20494;-42
2022/04/15 09:48:03;;;;;;;9.88;5.00;;;;;;;;;;5011530;28;20034;-40
2022/04/15 09:50:38;;;;;;;7.00;5.00;;;;;;;;;;5010971;28;20084;-39
2022/04/15 09:53:09;;;;;;;7.32;4.72;;;;;;;;;;5012453;28;20022;-40
2022/04/15 09:55:36;;;;;;;7.57;5.10;;;;;;;;;;5012542;28;20075;-40
2022/04/15 09:58:09;;;;;;;8.13;5.25;;;;;;;;;;5011304;28;20041;-39
2022/04/15 10:00:36;;;;;;;8.10;5.90;;;;;;;;;;5012210;28;20117;-41
2022/04/15 10:03:06;;;;;;;7.70;5.38;;;;;;;;;;5012596;28;20391;-40
2022/04/15 10:05:33;;;;;;;8.15;6.00;;;;;;;;;;5007523;28;20034;-42
2022/04/15 10:08:01;;;;;;;7.85;5.38;;;;;;;;;;5009750;28;20030;-39
2022/04/15 10:10:29;;;;;;;6.13;5.00;;;;;;;;;;5012505;28;20367;-39
2022/04/15 10:12:58;;;;;;;7.18;5.20;;;;;;;;;;5012552;28;20030;-39
2022/04/15 10:15:23;;;;;;;9.17;5.93;;;;;;;;;;5012492;28;20061;-44
2022/04/15 10:17:50;;;;;;;9.55;5.80;;;;;;;;;;5012522;28;20030;-42
2022/04/15 10:20:16;;;;;;;7.00;5.30;;;;;;;;;;5012195;28;20022;-39
2022/04/15 10:22:42;;;;;;;8.55;6.00;;;;;;;;;;5012295;28;20026;-38
2022/04/15 10:25:08;;;;;;;7.78;5.28;;;;;;;;;;4994619;28;20497;-38
2022/04/15 10:27:34;;;;;;;9.02;5.15;;;;;;;;;;5012449;28;20033;-38
2022/04/15 10:30:02;;;;;;;8.55;5.45;;;;;;;;;;5012299;28;20374;-39
2022/04/15 10:32:29;;;;;;;11.85;5.18;;;;;;;;;;5012315;28;20057;-40
2022/04/15 10:34:54;;;;;;;6.57;5.28;;;;;;;;;;5012297;28;20173;-42
2022/04/15 10:37:46;;;;;;;7.72;5.35;;;;;;;;;;5011896;28;20101;-40
2022/04/15 10:40:23;;;;;;;12.68;6.22;;;;;;;;;;5012250;28;20068;-40
2022/04/15 10:42:50;;;;;;;7.13;4.90;;;;;;;;;;5012514;28;20030;-47
2022/04/15 10:45:29;;;;;;;6.13;5.28;;;;;;;;;;5012277;28;20021;-39
2022/04/15 10:48:01;;;;;;;;;;;;;;;;;;5012474;28;20061;-41
2022/04/15 10:50:31;;;;;;;11.45;6.93;;;;;;;;;;5011346;28;19921;-40
2022/04/15 10:53:29;;;;;;;12.18;7.53;;;;;;;;;;5010804;28;20030;-43
2022/04/15 10:56:06;;;;;;;10.48;7.60;;;;;;;;;;5010067;28;20033;-42
2022/04/15 10:58:31;;;;;;;9.45;7.35;;;;;;;;;;5010816;28;20462;-41
2022/04/15 11:01:16;;;;;;;10.40;7.32;;;;;;;;;;5011896;28;20096;-39
2022/04/15 11:03:56;;;;;;;10.98;7.28;;;;;;;;;;5011986;28;20052;-41
2022/04/15 11:06:28;;;;;;;13.60;6.75;;;;;;;;;;5012210;28;20104;-39
2022/04/15 11:08:54;;;;;;;10.10;6.95;;;;;;;;;;5011920;28;20022;-40
2022/04/15 11:11:39;;;;;;;9.20;6.95;;;;;;;;;;5015425;28;20026;-41
2022/04/15 11:14:04;;;;;;;7.30;5.60;;;;;;;;;;5015714;28;20033;-39
2022/04/15 11:16:42;;;;;;;10.32;6.65;;;;;;;;;;5015612;28;20033;-40
2022/04/15 11:19:08;;;;;;;7.90;5.68;;;;;;;;;;5015630;28;20037;-39
2022/04/15 11:21:37;;;;;;;10.40;5.30;;;;;;;;;;5015604;28;20032;-40
2022/04/15 11:24:09;;;;;;;5.97;4.75;;;;;;;;;;5015540;28;20108;-40
2022/04/15 11:26:42;;;;;;;7.00;5.20;;;;;;;;;;5015428;28;20478;-40
2022/04/15 11:29:11;;;;;;;7.18;4.85;;;;;;;;;;5015478;28;20029;-41
2022/04/15 11:31:41;;;;;;;6.63;4.97;;;;;;;;;;5015145;28;20026;-40
2022/04/15 11:34:11;;;;;;;7.78;5.53;;;;;;;;;;5015652;28;20033;-40
2022/04/15 11:36:41;;;;;;;6.93;5.15;;;;;;;;;;5014815;28;20483;-43
2022/04/15 11:39:08;;;;;;;6.65;5.05;;;;;;;;;;5014867;28;20445;-40
2022/04/15 11:41:34;;;;;;;6.85;4.60;;;;;;;;;;5014920;28;20025;-39
2022/04/15 11:44:05;;;;;;;6.40;4.70;;;;;;;;;;5014386;28;20121;-43
2022/04/15 11:46:40;;;;;;;8.35;5.05;;;;;;;;;;5015106;28;20371;-39
2022/04/15 11:49:15;;;;;;;7.55;4.50;;;;;;;;;;5014782;28;20522;-41
2022/04/15 11:51:44;;;;;;;7.07;5.32;;;;;;;;;;5015044;28;20113;-40
2022/04/15 11:54:09;;;;;;;7.95;5.18;;;;;;;;;;5014950;28;20030;-41
2022/04/15 11:56:35;;;;;;;8.05;5.80;;;;;;;;;;5014847;28;20025;-38
2022/04/15 11:59:01;;;;;;;9.00;5.85;;;;;;;;;;5014391;28;20045;-41
2022/04/15 12:01:29;;;;;;;14.18;6.22;;;;;;;;;;5014516;28;20038;-39
2022/04/15 12:03:55;;;;;;;10.18;7.18;;;;;;;;;;5014817;28;20037;-39
2022/04/15 12:06:22;;;;;;;9.77;6.57;;;;;;;;;;5014669;28;20521;-38
2022/04/15 12:08:48;;;;;;;8.70;6.10;;;;;;;;;;5014370;28;20029;-38
2022/04/15 12:11:14;;;;;;;9.43;5.82;;;;;;;;;;5013735;28;20072;-38
2022/04/15 12:13:39;;;;;;;8.23;5.55;;;;;;;;;;5014296;28;20459;-37
2022/04/15 12:16:05;;;;;;;6.85;5.10;;;;;;;;;;5014528;28;20022;-39
2022/04/15 12:18:32;;;;;;;9.93;5.22;;;;;;;;;;5014271;28;20029;-39
2022/04/15 12:21:00;;;;;;;6.47;4.65;;;;;;;;;;5013693;28;20022;-37
2022/04/15 12:23:26;;;;;;;9.38;5.55;;;;;;;;;;5014427;28;20506;-39
2022/04/15 12:26:05;;;;;;;8.75;5.25;;;;;;;;;;5014075;28;20176;-38
2022/04/15 12:31:30;;;;;;;8.00;6.55;;;;;;;;;;5013966;28;20040;-37
2022/04/15 12:33:55;;;;;;;10.93;7.10;;;;;;;;;;5013934;28;20045;-38
2022/04/15 12:36:21;;;;;;;11.13;7.65;;;;;;;;;;5013777;28;20025;-38
2022/04/15 12:39:05;;;;;;;12.88;7.75;;;;;;;;;;5014340;28;20159;-38
2022/04/15 12:41:46;;;;;;;11.77;7.88;;;;;;;;;;5013748;28;20021;-39
2022/04/15 12:44:27;;;;;;;11.88;8.02;;;;;;;;;;5014390;28;20076;-39
2022/04/15 12:46:58;;;;;;;9.52;6.47;;;;;;;;;;5013649;28;20051;-38
2022/04/15 12:49:34;;;;;;;11.02;7.05;;;;;;;;;;5013983;28;20026;-38
2022/04/15 12:52:11;;;;;;;15.88;8.57;;;;;;;;;;5013648;28;20069;-38
2022/04/15 12:55:04;;;;;;;12.30;7.18;;;;;;;;;;5013613;28;20029;-37
2022/04/15 12:57:31;;;;;;;10.32;8.00;;;;;;;;;;5013582;28;20033;-37
2022/04/15 12:59:57;;;;;;;21.58;8.52;;;;;;;;;;5013595;28;20112;-38
2022/04/15 13:02:23;;;;;;;16.33;8.70;;;;;;;;;;5013373;28;20589;-38
2022/04/15 13:04:53;;;;;;;14.70;8.65;;;;;;;;;;5013325;28;20474;-38
2022/04/15 13:07:20;;;;;;;11.93;8.15;;;;;;;;;;5013202;28;20475;-37
2022/04/15 13:09:46;;;;;;;11.60;8.35;;;;;;;;;;5013350;28;20434;-38
2022/04/15 13:12:12;;;;;;;16.08;8.95;;;;;;;;;;5013509;28;20030;-37
2022/04/15 13:14:38;;;;;;;12.55;8.27;;;;;;;;;;5013217;28;20033;-38
2022/04/15 13:17:04;;;;;;;15.45;9.52;;;;;;;;;;5013457;28;20033;-39
2022/04/15 13:19:29;;;;;;;18.30;9.48;;;;;;;;;;5013435;28;20057;-40
2022/04/15 13:21:55;;;;;;;13.00;8.48;;;;;;;;;;4995814;28;20014;-38
2022/04/15 13:24:20;;;;;;;15.02;9.23;;;;;;;;;;5013041;28;20474;-38
2022/04/15 13:26:46;;;;;;;11.48;8.25;;;;;;;;;;4995300;28;20061;-38
2022/04/15 13:29:11;;;;;;;14.93;7.93;;;;;;;;;;5012962;28;20041;-38
2022/04/15 13:31:37;;;;;;;14.38;7.57;;;;;;;;;;5012889;28;20026;-38
2022/04/15 13:34:02;;;;;;;11.27;6.80;;;;;;;;;;5012740;28;20025;-38
2022/04/15 13:36:29;;;;;;;14.60;6.40;;;;;;;;;;5012922;28;20084;-37
2022/04/15 13:38:55;;;;;;;31.58;6.88;;;;;;;;;;5012770;28;20022;-38
2022/04/15 13:41:21;;;;;;;17.92;5.40;;;;;;;;;;5012830;28;20017;-38
2022/04/15 13:43:48;;;;;;;13.52;4.80;;;;;;;;;;5012983;28;20108;-37
2022/04/15 13:46:13;;;;;;;15.93;5.43;;;;;;;;;;5012632;28;20060;-37
2022/04/15 13:48:41;;;;;;;8.48;5.18;;;;;;;;;;5012564;28;20030;-40
2022/04/15 13:51:07;;;;;;;11.98;5.72;;;;;;;;;;5012606;28;20105;-37
2022/04/15 13:56:37;;;;;;;11.32;6.78;;;;;;;;;;5012903;28;20429;-39
2022/04/15 13:59:08;;;;;;;11.85;7.20;;;;;;;;;;5012407;28;20065;-39
2022/04/15 14:01:36;;;;;;;14.13;7.13;;;;;;;;;;5012554;28;20536;-38
2022/04/15 14:04:06;;;;;;;17.08;6.75;;;;;;;;;;5012557;28;20030;-38
2022/04/15 14:06:35;;;;;;;15.20;5.97;;;;;;;;;;5012748;28;20033;-38
2022/04/15 14:09:01;;;;;;;8.55;5.35;;;;;;;;;;5013062;28;20032;-38
2022/04/15 14:11:26;;;;;;;9.85;5.50;;;;;;;;;;5012727;28;20097;-40
2022/04/15 14:13:52;;;;;;;10.52;5.28;;;;;;;;;;5012302;28;20474;-38
2022/04/15 14:16:18;;;;;;;8.23;5.40;;;;;;;;;;5012462;28;20053;-38
2022/04/15 14:18:44;;;;;;;10.35;5.57;;;;;;;;;;5012642;28;20033;-38
2022/04/15 14:21:10;;;;;;;9.48;5.13;;;;;;;;;;5012570;28;20463;-38
2022/04/15 14:23:36;;;;;;;11.15;5.88;;;;;;;;;;5012303;28;20108;-38
2022/04/15 14:26:02;;;;;;;8.77;5.68;;;;;;;;;;5012545;28;20034;-38
2022/04/15 14:28:30;;;;;;;13.15;5.95;;;;;;;;;;5012571;28;20024;-38
2022/04/15 14:30:55;;;;;;;9.82;5.57;;;;;;;;;;5012611;28;20030;-38
2022/04/15 14:33:21;;;;;;;8.70;4.55;;;;;;;;;;5012131;28;20363;-38
2022/04/15 14:35:47;;;;;;;6.40;3.88;;;;;;;;;;5012270;28;20038;-37
2022/04/15 14:38:12;;;;;;;8.68;3.67;;;;;;;;;;5012212;28;20030;-38
2022/04/15 14:40:39;;;;;;;6.97;3.30;;;;;;;;;;5012112;28;20026;-38